Terminal Aerodrome Forecast
Issued by NWS Charleston, SC

Home | Current Version | Previous Version | Text Only | Print | Product List | Glossary On
Versions: 1 2 3 4 5 6 7 8 9 10 11 12 13 14 15 16 17 18 19
000
FTUS42 KCHS 280520
TAFCHS
TAF
KCHS 280520Z 2806/2906 20009KT P6SM FEW007 OVC012
      TEMPO 2809/2812 20005KT BKN008
     FM281400 20006KT P6SM SCT015 BKN250
     FM281800 18012G20KT P6SM FEW035
     FM290300 18011KT P6SM FEW030=

USA.gov is the U.S. government's official web portal to all federal, state and local government web resources and services.